Terminal Aerodrome Forecast
Issued by NWS

Home | Current Version | Previous Version | Text Only | Print | Product List | Glossary On
Versions: 1 2 3 4 5 6 7 8 9 10 11 12 13 14 15 16 17
000
FTUS46 KSEW 231100
TAFPAE
TAF
KPAE 231120Z 2312/2412 19006KT P6SM OVC012
     FM232300 VRB03KT P6SM OVC040
     FM240500 06003KT P6SM OVC015=

USA.gov is the U.S. government's official web portal to all federal, state and local government web resources and services.